createdAt,value
2023-04-09T00:01:40.899Z,18.65
2023-04-09T00:06:05.656Z,19.08
2023-04-09T00:10:33.631Z,18.20
2023-04-09T00:14:57.916Z,19.10
2023-04-09T00:19:23.803Z,19.30
2023-04-09T00:23:48.218Z,17.80
2023-04-09T00:28:15.896Z,17.10
2023-04-09T00:32:41.300Z,16.42
2023-04-09T00:37:05.558Z,16.15
2023-04-09T00:41:29.734Z,16.13
2023-04-09T00:45:55.766Z,16.55
2023-04-09T00:50:19.907Z,16.50
2023-04-09T00:54:44.088Z,17.70
2023-04-09T00:59:08.525Z,16.90
2023-04-09T01:03:40.207Z,17.83
2023-04-09T01:08:10.510Z,19.17
2023-04-09T01:12:47.468Z,19.90
2023-04-09T01:17:18.925Z,20.80
2023-04-09T01:21:46.501Z,20.10
2023-04-09T01:26:20.916Z,18.90
2023-04-09T01:30:55.329Z,19.55
2023-04-09T01:35:23.043Z,21.02
2023-04-09T01:39:48.252Z,19.27
2023-04-09T01:44:14.732Z,21.40
2023-04-09T01:48:36.358Z,18.52
2023-04-09T01:53:02.823Z,18.07
2023-04-09T01:57:28.321Z,19.35
2023-04-09T02:01:56.340Z,19.73
2023-04-09T02:06:32.817Z,19.75
2023-04-09T02:11:06.851Z,19.17
2023-04-09T02:15:34.950Z,19.55
2023-04-09T02:19:59.624Z,18.83
2023-04-09T02:24:38.558Z,21.73
2023-04-09T02:29:02.578Z,21.63
2023-04-09T02:33:26.367Z,21.75
2023-04-09T02:37:50.570Z,21.30
2023-04-09T02:42:16.080Z,22.15
2023-04-09T02:46:40.686Z,21.83
2023-04-09T02:51:09.468Z,24.85
2023-04-09T02:55:33.884Z,24.07
2023-04-09T02:59:59.621Z,25.52
2023-04-09T03:04:23.706Z,25.45
2023-04-09T03:08:47.571Z,23.97
2023-04-09T03:13:11.621Z,25.88
2023-04-09T03:17:42.068Z,26.85
2023-04-09T03:22:07.253Z,27.67
2023-04-09T03:26:38.657Z,28.42
2023-04-09T03:31:06.996Z,29.17
2023-04-09T03:35:31.945Z,30.85
2023-04-09T03:40:00.515Z,29.07
2023-04-09T03:44:27.987Z,30.05
2023-04-09T03:48:57.233Z,28.85
2023-04-09T03:53:32.413Z,26.03
2023-04-09T03:58:04.084Z,24.30
2023-04-09T04:02:33.946Z,22.90
2023-04-09T04:07:01.744Z,23.80
2023-04-09T04:11:30.755Z,24.45
2023-04-09T04:15:54.772Z,25.73
2023-04-09T04:20:23.442Z,22.17
2023-04-09T04:25:02.397Z,29.40
2023-04-09T04:29:31.737Z,26.10
2023-04-09T04:33:58.232Z,26.65
2023-04-09T04:38:22.603Z,26.67
2023-04-09T04:42:47.683Z,26.45
2023-04-09T04:47:14.828Z,26.17
2023-04-09T04:51:39.258Z,27.57
2023-04-09T04:56:07.054Z,28.67
2023-04-09T05:00:31.234Z,27.85
2023-04-09T05:05:00.750Z,30.73
2023-04-09T05:09:32.050Z,28.70
2023-04-09T05:13:59.220Z,28.15
2023-04-09T05:18:23.494Z,28.42
2023-04-09T05:22:48.819Z,27.13
2023-04-09T05:27:13.658Z,24.42
2023-04-09T05:31:40.233Z,23.48
2023-04-09T05:36:09.666Z,23.47
2023-04-09T05:40:35.513Z,25.10
2023-04-09T05:45:03.784Z,23.92
2023-04-09T05:49:28.226Z,24.17
2023-04-09T05:53:54.708Z,22.63
2023-04-09T05:58:21.354Z,10.57
2023-04-09T06:02:46.605Z,18.95
2023-04-09T06:07:10.824Z,19.80
2023-04-09T06:11:34.957Z,18.90
2023-04-09T06:16:00.623Z,18.73
2023-04-09T06:20:24.624Z,17.63
2023-04-09T06:24:44.666Z,16.67
2023-04-09T06:29:08.517Z,17.83
2023-04-09T06:33:34.386Z,16.90
2023-04-09T06:37:58.636Z,17.50
2023-04-09T06:42:22.546Z,18.05
2023-04-09T06:46:53.506Z,19.92
2023-04-09T06:51:19.487Z,19.90
2023-04-09T06:55:43.347Z,19.92
2023-04-09T07:00:08.550Z,18.40
2023-04-09T07:04:32.649Z,19.17
2023-04-09T07:08:58.089Z,16.52
2023-04-09T07:13:22.395Z,15.13
2023-04-09T07:17:46.354Z,17.65
2023-04-09T07:22:10.505Z,17.30
2023-04-09T07:26:35.958Z,17.45
2023-04-09T07:31:01.615Z,15.80
2023-04-09T07:35:25.595Z,15.27
2023-04-09T07:39:51.431Z,15.02
2023-04-09T07:44:16.815Z,14.13
2023-04-09T07:48:40.902Z,15.13
2023-04-09T07:53:04.971Z,15.55
2023-04-09T07:57:29.011Z,16.75
2023-04-09T08:01:56.398Z,16.75
2023-04-09T08:06:23.445Z,17.23
2023-04-09T08:10:48.007Z,15.00
2023-04-09T08:15:12.198Z,16.92
2023-04-09T08:19:39.789Z,11.90
2023-04-09T08:24:06.043Z,17.85
2023-04-09T08:28:30.040Z,18.15
2023-04-09T08:32:54.325Z,15.43
2023-04-09T08:37:19.520Z,15.60
2023-04-09T08:41:44.443Z,14.93
2023-04-09T08:46:08.234Z,15.27
2023-04-09T08:50:32.538Z,13.07
2023-04-09T08:54:58.335Z,13.30
2023-04-09T08:59:22.504Z,16.50
2023-04-09T09:03:59.371Z,14.87
2023-04-09T09:08:25.962Z,15.30
2023-04-09T09:12:51.826Z,15.20
2023-04-09T09:17:16.194Z,13.87
2023-04-09T09:21:41.862Z,13.38
2023-04-09T09:26:14.220Z,14.25
2023-04-09T09:30:41.095Z,14.18
2023-04-09T09:35:06.458Z,14.17
2023-04-09T09:39:44.996Z,13.63
2023-04-09T09:44:10.426Z,13.95
2023-04-09T09:48:32.346Z,13.00
2023-04-09T09:53:01.743Z,13.10
2023-04-09T09:57:28.242Z,12.85
2023-04-09T10:01:58.070Z,12.40
2023-04-09T10:06:24.308Z,12.68
2023-04-09T10:10:48.636Z,12.32
2023-04-09T10:15:12.914Z,12.18
2023-04-09T10:19:40.978Z,11.33
2023-04-09T10:24:08.196Z,11.23
2023-04-09T10:28:32.339Z,11.75
2023-04-09T10:32:56.606Z,11.73
2023-04-09T10:37:23.633Z,11.88
2023-04-09T10:41:50.045Z,11.60
2023-04-09T10:46:31.135Z,11.33
2023-04-09T10:50:55.336Z,11.38
2023-04-09T10:55:38.730Z,11.15
2023-04-09T11:00:04.412Z,11.75
2023-04-09T11:04:39.014Z,11.10
2023-04-09T11:09:03.860Z,11.43
2023-04-09T11:13:28.636Z,11.05
2023-04-09T11:17:54.047Z,10.93
2023-04-09T11:22:18.220Z,10.73
2023-04-09T11:26:42.153Z,12.00
2023-04-09T11:31:07.023Z,11.50
2023-04-09T11:35:35.607Z,11.65
2023-04-09T11:40:00.995Z,11.82
2023-04-09T11:44:25.104Z,10.93
2023-04-09T11:48:49.884Z,11.47
2023-04-09T11:53:22.129Z,12.60
2023-04-09T11:57:47.401Z,13.25
2023-04-09T12:02:11.362Z,13.43
2023-04-09T12:06:42.676Z,13.40
2023-04-09T12:11:13.943Z,14.20
2023-04-09T12:15:41.079Z,12.87
2023-04-09T12:20:07.045Z,13.07
2023-04-09T12:24:31.089Z,12.52
2023-04-09T12:28:56.312Z,11.63
2023-04-09T12:33:20.552Z,12.07
2023-04-09T12:37:44.781Z,11.90
2023-04-09T12:42:08.634Z,11.75
2023-04-09T12:46:33.941Z,12.40
2023-04-09T12:50:57.856Z,11.70
2023-04-09T12:55:22.225Z,12.98
2023-04-09T12:59:50.394Z,12.00
2023-04-09T13:04:16.396Z,10.73
2023-04-09T13:08:40.610Z,11.45
2023-04-09T13:13:04.523Z,11.30
2023-04-09T13:17:28.574Z,10.23
2023-04-09T13:21:54.016Z,9.98
2023-04-09T13:26:21.151Z,10.68
2023-04-09T13:30:45.639Z,10.63
2023-04-09T13:35:10.962Z,10.85
2023-04-09T13:39:36.341Z,9.93
2023-04-09T13:44:00.923Z,9.23
2023-04-09T13:48:25.555Z,10.23
2023-04-09T13:52:49.551Z,9.13
2023-04-09T13:57:15.040Z,9.20
2023-04-09T14:01:39.146Z,9.43
2023-04-09T14:06:03.521Z,9.77
2023-04-09T14:10:27.734Z,9.30
2023-04-09T14:14:53.475Z,9.27
2023-04-09T14:19:19.606Z,9.07
2023-04-09T14:23:43.498Z,9.40
2023-04-09T14:28:07.543Z,10.20
2023-04-09T14:32:33.209Z,9.25
2023-04-09T14:36:57.019Z,9.38
2023-04-09T14:41:21.689Z,9.00
2023-04-09T14:45:46.227Z,8.10
2023-04-09T14:50:12.953Z,8.38
2023-04-09T14:54:37.897Z,8.30
2023-04-09T14:59:02.112Z,7.70
2023-04-09T15:03:26.479Z,7.97
2023-04-09T15:07:51.775Z,7.68
2023-04-09T15:12:15.715Z,7.13
2023-04-09T15:16:39.697Z,7.32
2023-04-09T15:21:03.621Z,6.68
2023-04-09T15:25:28.998Z,7.20
2023-04-09T15:29:53.275Z,7.50
2023-04-09T15:34:17.368Z,7.50
2023-04-09T15:38:41.361Z,6.50
2023-04-09T15:43:06.671Z,5.90
2023-04-09T15:47:33.092Z,5.85
2023-04-09T15:51:57.322Z,6.03
2023-04-09T15:56:21.828Z,5.67
2023-04-09T16:00:50.351Z,6.05
2023-04-09T16:05:14.536Z,6.35
2023-04-09T16:09:39.516Z,6.95
2023-04-09T16:14:03.472Z,6.70
2023-04-09T16:18:38.363Z,7.55
2023-04-09T16:23:02.438Z,8.48
2023-04-09T16:27:26.735Z,9.20
2023-04-09T16:31:54.332Z,9.30
2023-04-09T16:36:21.594Z,9.25
2023-04-09T16:40:48.709Z,8.63
2023-04-09T16:45:12.996Z,8.80
2023-04-09T16:49:37.003Z,9.63
2023-04-09T16:54:02.584Z,9.50
2023-04-09T16:58:30.968Z,9.17
2023-04-09T17:02:55.618Z,10.15
2023-04-09T17:07:21.814Z,9.50
2023-04-09T17:11:53.142Z,8.93
2023-04-09T17:16:21.212Z,8.65
2023-04-09T17:20:47.852Z,9.18
2023-04-09T17:25:22.971Z,9.17
2023-04-09T17:29:51.794Z,9.35
2023-04-09T17:34:21.917Z,9.50
2023-04-09T17:38:50.161Z,10.82
2023-04-09T17:43:17.691Z,10.50
2023-04-09T17:47:43.372Z,11.20
2023-04-09T17:52:10.421Z,10.98
2023-04-09T17:56:42.329Z,11.40
2023-04-09T18:01:17.141Z,12.15
2023-04-09T18:05:43.054Z,11.35
2023-04-09T18:10:18.927Z,11.53
2023-04-09T18:14:46.707Z,11.63
2023-04-09T18:19:08.974Z,11.75
2023-04-09T18:23:31.647Z,11.88
2023-04-09T18:27:51.399Z,11.80
2023-04-09T18:32:10.536Z,11.52
2023-04-09T18:36:47.428Z,11.27
2023-04-09T18:41:16.749Z,12.83
2023-04-09T18:45:40.879Z,12.00
2023-04-09T18:50:09.039Z,13.48
2023-04-09T18:54:34.885Z,11.70
2023-04-09T18:59:02.688Z,11.02
2023-04-09T19:03:28.698Z,13.00
2023-04-09T19:07:59.753Z,13.40
2023-04-09T19:12:23.909Z,15.17
2023-04-09T19:16:49.823Z,13.40
2023-04-09T19:21:23.952Z,16.08
2023-04-09T19:25:53.432Z,17.80
2023-04-09T19:30:17.852Z,18.45
2023-04-09T19:34:44.194Z,21.33
2023-04-09T19:39:11.124Z,19.87
2023-04-09T19:43:39.385Z,18.13
2023-04-09T19:48:03.399Z,17.98
2023-04-09T19:52:33.170Z,19.25
2023-04-09T19:56:57.739Z,18.20
2023-04-09T20:01:24.804Z,17.00
2023-04-09T20:05:56.116Z,17.25
2023-04-09T20:10:24.007Z,15.43
2023-04-09T20:14:49.503Z,14.43
2023-04-09T20:19:23.813Z,15.23
2023-04-09T20:24:04.068Z,18.27
2023-04-09T20:28:42.751Z,16.45
2023-04-09T20:33:45.627Z,16.73
2023-04-09T20:38:20.532Z,15.93
2023-04-09T20:42:44.807Z,15.70
2023-04-09T20:47:10.203Z,17.60
2023-04-09T20:51:35.343Z,20.50
2023-04-09T20:56:14.027Z,18.90
2023-04-09T21:00:49.148Z,20.27
2023-04-09T21:05:22.571Z,19.50
2023-04-09T21:09:48.412Z,19.77
2023-04-09T21:14:13.548Z,18.80
2023-04-09T21:18:37.931Z,19.02
2023-04-09T21:23:05.823Z,19.42
2023-04-09T21:27:30.120Z,19.40
2023-04-09T21:31:54.083Z,19.27
2023-04-09T21:36:18.339Z,19.83
2023-04-09T21:40:43.676Z,20.43
2023-04-09T21:45:08.969Z,18.77
2023-04-09T21:49:33.673Z,18.42
2023-04-09T21:54:04.932Z,18.23
2023-04-09T21:58:31.777Z,18.30
2023-04-09T22:03:01.435Z,18.80
2023-04-09T22:07:25.924Z,17.50
2023-04-09T22:11:49.974Z,18.03
2023-04-09T22:16:17.105Z,18.05
2023-04-09T22:20:41.269Z,17.75
2023-04-09T22:25:08.817Z,19.63
2023-04-09T22:29:38.007Z,23.15
2023-04-09T22:34:19.443Z,22.30
2023-04-09T22:38:49.779Z,22.37
2023-04-09T22:43:13.738Z,21.88
2023-04-09T22:47:38.015Z,23.42
2023-04-09T22:52:05.453Z,23.10
2023-04-09T22:56:30.188Z,20.40
2023-04-09T23:00:54.387Z,21.73
2023-04-09T23:05:18.968Z,19.33
2023-04-09T23:09:45.895Z,21.00
2023-04-09T23:14:09.678Z,20.40
2023-04-09T23:18:34.235Z,20.10
2023-04-09T23:22:58.043Z,20.63
2023-04-09T23:27:28.289Z,21.27
2023-04-09T23:31:52.286Z,19.98
2023-04-09T23:36:16.188Z,19.42
2023-04-09T23:40:40.222Z,19.27
2023-04-09T23:45:06.745Z,18.48
2023-04-09T23:49:30.904Z,17.30
2023-04-09T23:53:55.068Z,16.77
2023-04-09T23:58:19.199Z,17.77
